createdAt,value
2023-05-20T00:01:04.367Z,13.79
2023-05-20T00:03:31.184Z,13.74
2023-05-20T00:05:58.204Z,13.70
2023-05-20T00:08:25.487Z,13.64
2023-05-20T00:10:52.331Z,13.62
2023-05-20T00:13:19.251Z,13.59
2023-05-20T00:15:46.145Z,13.57
2023-05-20T00:18:12.923Z,13.57
2023-05-20T00:20:39.851Z,13.55
2023-05-20T00:23:06.944Z,13.51
2023-05-20T00:25:33.898Z,13.48
2023-05-20T00:28:01.147Z,13.47
2023-05-20T00:30:28.156Z,13.45
2023-05-20T00:32:54.955Z,13.45
2023-05-20T00:35:21.964Z,13.45
2023-05-20T00:37:48.787Z,13.44
2023-05-20T00:40:16.318Z,13.39
2023-05-20T00:42:43.202Z,13.35
2023-05-20T00:45:10.631Z,13.31
2023-05-20T00:47:38.263Z,13.28
2023-05-20T00:50:05.868Z,13.26
2023-05-20T00:52:32.717Z,13.24
2023-05-20T00:54:59.829Z,13.21
2023-05-20T00:57:27.004Z,13.20
2023-05-20T00:59:53.882Z,13.19
2023-05-20T01:02:21.466Z,13.20
2023-05-20T01:04:48.607Z,13.19
2023-05-20T01:07:16.541Z,13.20
2023-05-20T01:09:43.409Z,13.20
2023-05-20T01:12:15.371Z,13.21
2023-05-20T01:14:59.208Z,13.24
2023-05-20T01:17:27.431Z,13.27
2023-05-20T01:19:54.922Z,13.30
2023-05-20T01:22:26.826Z,13.32
2023-05-20T01:24:53.660Z,13.34
2023-05-20T01:27:22.712Z,13.33
2023-05-20T01:29:53.542Z,13.35
2023-05-20T01:32:28.601Z,13.40
2023-05-20T01:34:55.764Z,13.44
2023-05-20T01:37:22.591Z,13.46
2023-05-20T01:39:49.981Z,13.47
2023-05-20T01:42:17.281Z,13.50
2023-05-20T01:44:44.181Z,13.53
2023-05-20T01:47:11.137Z,13.57
2023-05-20T01:49:37.919Z,13.58
2023-05-20T01:52:05.828Z,13.60
2023-05-20T01:54:34.072Z,13.61
2023-05-20T01:57:01.757Z,13.64
2023-05-20T01:59:28.901Z,13.66
2023-05-20T02:01:56.319Z,13.67
2023-05-20T02:04:23.218Z,13.68
2023-05-20T02:06:50.542Z,13.69
2023-05-20T02:09:18.693Z,13.71
2023-05-20T02:11:45.507Z,13.72
2023-05-20T02:14:12.624Z,13.73
2023-05-20T02:16:39.665Z,13.72
2023-05-20T02:19:12.980Z,13.72
2023-05-20T02:21:41.363Z,13.71
2023-05-20T02:24:10.149Z,13.70
2023-05-20T02:26:37.240Z,13.71
2023-05-20T02:29:04.011Z,13.72
2023-05-20T02:31:31.040Z,13.74
2023-05-20T02:33:57.925Z,13.78
2023-05-20T02:36:24.839Z,13.78
2023-05-20T02:38:51.703Z,13.80
2023-05-20T02:41:18.598Z,13.81
2023-05-20T02:43:47.090Z,13.83
2023-05-20T02:46:13.994Z,13.85
2023-05-20T02:48:41.023Z,13.87
2023-05-20T02:51:07.836Z,13.90
2023-05-20T02:53:34.628Z,13.92
2023-05-20T02:56:01.722Z,13.95
2023-05-20T02:58:29.611Z,13.97
2023-05-20T03:00:57.826Z,13.98
2023-05-20T03:03:27.303Z,13.99
2023-05-20T03:05:54.304Z,14.02
2023-05-20T03:08:22.411Z,14.04
2023-05-20T03:10:49.289Z,14.06
2023-05-20T03:13:16.141Z,14.09
2023-05-20T03:15:45.581Z,14.12
2023-05-20T03:18:13.777Z,14.14
2023-05-20T03:20:41.715Z,14.15
2023-05-20T03:23:09.379Z,14.18
2023-05-20T03:25:37.519Z,14.18
2023-05-20T03:28:06.710Z,14.18
2023-05-20T03:30:34.915Z,14.17
2023-05-20T03:33:03.252Z,14.19
2023-05-20T03:35:30.583Z,14.21
2023-05-20T03:37:58.749Z,14.22
2023-05-20T03:40:26.074Z,14.22
2023-05-20T03:42:53.485Z,14.22
2023-05-20T03:45:21.042Z,14.24
2023-05-20T03:48:08.311Z,14.24
2023-05-20T03:50:36.009Z,14.22
2023-05-20T03:53:03.115Z,14.19
2023-05-20T03:55:36.019Z,14.18
2023-05-20T03:58:03.650Z,14.16
2023-05-20T04:00:32.044Z,14.14
2023-05-20T04:02:58.913Z,14.13
2023-05-20T04:05:26.832Z,14.13
2023-05-20T04:07:54.802Z,14.14
2023-05-20T04:10:22.107Z,14.16
2023-05-20T04:12:50.693Z,14.19
2023-05-20T04:15:18.183Z,14.20
2023-05-20T04:17:51.109Z,14.23
2023-05-20T04:20:18.774Z,14.25
2023-05-20T04:22:46.204Z,14.28
2023-05-20T04:25:14.065Z,14.31
2023-05-20T04:27:41.292Z,14.32
2023-05-20T04:30:08.519Z,14.33
2023-05-20T04:32:38.874Z,14.35
2023-05-20T04:35:11.742Z,14.38
2023-05-20T04:37:39.355Z,14.42
2023-05-20T04:40:08.235Z,14.45
2023-05-20T04:42:35.478Z,14.48
2023-05-20T04:45:04.511Z,14.50
2023-05-20T04:47:32.395Z,14.51
2023-05-20T04:49:59.239Z,14.52
2023-05-20T04:52:26.549Z,14.54
2023-05-20T04:54:54.159Z,14.54
2023-05-20T04:57:21.143Z,14.57
2023-05-20T04:59:48.232Z,14.59
2023-05-20T05:02:15.468Z,14.61
2023-05-20T05:04:42.393Z,14.65
2023-05-20T05:07:09.604Z,14.72
2023-05-20T05:09:36.540Z,14.77
2023-05-20T05:12:03.531Z,14.84
2023-05-20T05:14:30.395Z,14.92
2023-05-20T05:16:57.605Z,14.99
2023-05-20T05:19:24.528Z,15.05
2023-05-20T05:21:52.342Z,15.09
2023-05-20T05:24:19.438Z,15.10
2023-05-20T05:26:46.561Z,15.13
2023-05-20T05:29:14.743Z,15.15
2023-05-20T05:31:41.570Z,15.19
2023-05-20T05:34:08.728Z,15.22
2023-05-20T05:36:35.688Z,15.25
2023-05-20T05:39:02.577Z,15.30
2023-05-20T05:41:29.883Z,15.37
2023-05-20T05:43:58.675Z,15.47
2023-05-20T05:46:26.006Z,15.58
2023-05-20T05:48:52.784Z,15.71
2023-05-20T05:51:19.617Z,15.85
2023-05-20T05:53:47.340Z,15.97
2023-05-20T05:56:14.553Z,16.09
2023-05-20T05:58:42.176Z,16.20
2023-05-20T06:01:09.065Z,16.27
2023-05-20T06:03:35.936Z,16.30
2023-05-20T06:06:03.186Z,16.37
2023-05-20T06:08:30.810Z,16.46
2023-05-20T06:10:57.622Z,16.53
2023-05-20T06:13:24.575Z,16.60
2023-05-20T06:15:51.431Z,16.70
2023-05-20T06:18:18.215Z,16.82
2023-05-20T06:20:45.237Z,16.96
2023-05-20T06:23:12.240Z,17.12
2023-05-20T06:25:59.714Z,17.24
2023-05-20T06:28:27.444Z,17.34
2023-05-20T06:30:55.036Z,17.43
2023-05-20T06:33:26.229Z,17.55
2023-05-20T06:35:53.918Z,17.65
2023-05-20T06:38:21.101Z,17.75
2023-05-20T06:40:51.205Z,17.86
2023-05-20T06:43:18.669Z,18.00
2023-05-20T06:46:04.077Z,18.13
2023-05-20T06:48:36.216Z,18.20
2023-05-20T06:51:04.263Z,18.26
2023-05-20T06:53:31.224Z,18.33
2023-05-20T06:55:58.245Z,18.43
2023-05-20T06:58:26.199Z,18.56
2023-05-20T07:00:54.967Z,18.69
2023-05-20T07:03:23.130Z,18.80
2023-05-20T07:05:51.450Z,18.94
2023-05-20T07:08:19.096Z,19.10
2023-05-20T07:10:46.800Z,19.26
2023-05-20T07:13:17.209Z,19.44
2023-05-20T07:15:46.944Z,19.59
2023-05-20T07:18:14.379Z,19.69
2023-05-20T07:20:41.940Z,19.78
2023-05-20T07:23:15.861Z,19.91
2023-05-20T07:25:47.889Z,20.04
2023-05-20T07:28:16.196Z,20.16
2023-05-20T07:30:49.963Z,20.25
2023-05-20T07:33:28.101Z,20.32
2023-05-20T07:35:54.976Z,20.37
2023-05-20T07:38:22.699Z,20.44
2023-05-20T07:40:56.150Z,20.49
2023-05-20T07:43:23.155Z,20.50
2023-05-20T07:45:51.018Z,20.54
2023-05-20T07:48:18.150Z,20.56
2023-05-20T07:50:45.196Z,20.62
2023-05-20T07:53:12.432Z,20.68
2023-05-20T07:55:39.621Z,20.75
2023-05-20T07:58:06.937Z,20.81
2023-05-20T08:00:35.994Z,20.87
2023-05-20T08:03:04.561Z,20.91
2023-05-20T08:05:41.617Z,20.92
2023-05-20T08:08:10.528Z,20.94
2023-05-20T08:10:45.885Z,21.00
2023-05-20T08:13:12.763Z,21.04
2023-05-20T08:15:39.802Z,21.08
2023-05-20T08:18:07.224Z,21.10
2023-05-20T08:20:34.268Z,21.13
2023-05-20T08:23:01.189Z,21.17
2023-05-20T08:25:28.282Z,21.23
2023-05-20T08:27:55.844Z,21.27
2023-05-20T08:30:22.893Z,21.32
2023-05-20T08:32:49.754Z,21.38
2023-05-20T08:35:16.662Z,21.44
2023-05-20T08:37:43.478Z,21.48
2023-05-20T08:40:11.895Z,21.53
2023-05-20T08:42:42.584Z,21.59
2023-05-20T08:45:13.737Z,21.65
2023-05-20T08:47:43.071Z,21.69
2023-05-20T08:50:11.626Z,21.72
2023-05-20T08:52:45.438Z,21.76
2023-05-20T08:55:17.991Z,21.78
2023-05-20T08:57:45.989Z,21.80
2023-05-20T09:00:15.663Z,21.84
2023-05-20T09:02:43.171Z,21.89
2023-05-20T09:05:11.175Z,21.92
2023-05-20T09:07:38.183Z,21.94
2023-05-20T09:10:05.807Z,22.01
2023-05-20T09:12:32.664Z,22.09
2023-05-20T09:14:59.460Z,22.17
2023-05-20T09:17:26.362Z,22.28
2023-05-20T09:19:53.904Z,22.33
2023-05-20T09:22:24.820Z,22.36
2023-05-20T09:24:52.498Z,22.41
2023-05-20T09:27:20.467Z,22.43
2023-05-20T09:29:51.211Z,22.49
2023-05-20T09:32:19.827Z,22.50
2023-05-20T09:34:47.241Z,22.48
2023-05-20T09:37:15.199Z,22.50
2023-05-20T09:39:49.730Z,22.54
2023-05-20T09:42:21.256Z,22.57
2023-05-20T09:44:48.612Z,22.58
2023-05-20T09:47:15.475Z,22.52
2023-05-20T09:49:42.382Z,22.49
2023-05-20T09:52:09.321Z,22.49
2023-05-20T09:54:36.831Z,22.51
2023-05-20T09:57:03.864Z,22.54
2023-05-20T09:59:31.555Z,22.60
2023-05-20T10:01:58.562Z,22.72
2023-05-20T10:04:25.712Z,22.88
2023-05-20T10:07:33.901Z,23.05
2023-05-20T10:10:30.076Z,23.22
2023-05-20T10:13:21.389Z,23.30
2023-05-20T10:16:23.797Z,23.41
2023-05-20T10:19:09.625Z,23.48
2023-05-20T10:21:36.482Z,23.53
2023-05-20T10:24:10.179Z,23.63
2023-05-20T10:26:41.772Z,23.69
2023-05-20T10:29:18.259Z,23.68
2023-05-20T10:31:52.018Z,23.67
2023-05-20T10:34:21.030Z,23.59
2023-05-20T10:36:53.913Z,23.51
2023-05-20T10:39:27.797Z,23.43
2023-05-20T10:42:08.546Z,23.38
2023-05-20T10:44:47.511Z,23.33
2023-05-20T10:49:47.642Z,23.27
2023-05-20T10:52:14.664Z,23.17
2023-05-20T10:54:54.948Z,23.11
2023-05-20T10:57:22.525Z,23.08
2023-05-20T10:59:49.585Z,23.08
2023-05-20T11:04:50.765Z,23.13
2023-05-20T11:07:31.005Z,23.18
2023-05-20T11:09:58.561Z,23.21
2023-05-20T11:12:26.224Z,23.22
2023-05-20T11:14:53.147Z,23.23
2023-05-20T11:17:20.173Z,23.18
2023-05-20T11:19:47.614Z,23.12
2023-05-20T11:22:14.554Z,23.10
2023-05-20T11:24:41.825Z,23.07
2023-05-20T11:27:08.579Z,23.04
2023-05-20T11:29:35.532Z,22.97
2023-05-20T11:32:02.474Z,22.86
2023-05-20T11:34:37.466Z,22.79
2023-05-20T11:37:11.475Z,22.73
2023-05-20T11:39:38.459Z,22.68
2023-05-20T11:42:06.592Z,22.67
2023-05-20T11:44:33.504Z,22.65
2023-05-20T11:47:01.668Z,22.63
2023-05-20T11:49:28.867Z,22.63
2023-05-20T11:51:56.740Z,22.64
2023-05-20T11:54:24.500Z,22.67
2023-05-20T11:56:51.701Z,22.68
2023-05-20T11:59:18.644Z,22.71
2023-05-20T12:01:45.767Z,22.75
2023-05-20T12:04:17.561Z,22.80
2023-05-20T12:06:44.545Z,22.86
2023-05-20T12:09:11.569Z,22.90
2023-05-20T12:11:42.009Z,22.99
2023-05-20T12:14:09.231Z,23.08
2023-05-20T12:16:36.902Z,23.26
2023-05-20T12:19:04.183Z,23.48
2023-05-20T12:21:31.590Z,23.74
2023-05-20T12:24:01.854Z,23.95
2023-05-20T12:26:29.147Z,24.08
2023-05-20T12:28:56.535Z,24.12
2023-05-20T12:31:23.857Z,24.14
2023-05-20T12:33:50.904Z,24.15
2023-05-20T12:36:19.915Z,24.17
2023-05-20T12:38:47.253Z,24.19
2023-05-20T12:41:14.467Z,24.20
2023-05-20T12:43:41.661Z,24.22
2023-05-20T12:46:08.758Z,24.29
2023-05-20T12:48:36.916Z,24.33
2023-05-20T12:51:04.083Z,24.40
2023-05-20T12:53:31.147Z,24.48
2023-05-20T12:55:58.225Z,24.57
2023-05-20T12:58:25.137Z,24.67
2023-05-20T13:00:51.987Z,24.83
2023-05-20T13:03:18.995Z,24.98
2023-05-20T13:05:46.320Z,25.08
2023-05-20T13:08:14.842Z,25.12
2023-05-20T13:10:42.199Z,25.10
2023-05-20T13:13:09.058Z,25.03
2023-05-20T13:15:36.798Z,24.93
2023-05-20T13:18:06.129Z,24.87
2023-05-20T13:20:33.093Z,24.85
2023-05-20T13:23:00.137Z,24.85
2023-05-20T13:25:28.010Z,24.92
2023-05-20T13:27:54.815Z,25.07
2023-05-20T13:30:21.776Z,25.28
2023-05-20T13:32:48.582Z,25.51
2023-05-20T13:35:16.996Z,25.83
2023-05-20T13:37:44.014Z,26.10
2023-05-20T13:40:11.837Z,26.27
2023-05-20T13:42:38.627Z,26.40
2023-05-20T13:45:06.463Z,26.57
2023-05-20T13:47:33.485Z,26.76
2023-05-20T13:50:02.794Z,26.99
2023-05-20T13:52:30.399Z,27.20
2023-05-20T13:54:57.327Z,27.35
2023-05-20T13:57:24.118Z,27.53
2023-05-20T13:59:51.071Z,27.71
2023-05-20T14:02:18.113Z,27.79
2023-05-20T14:04:47.035Z,27.91
2023-05-20T14:07:14.060Z,27.89
2023-05-20T14:09:41.073Z,27.73
2023-05-20T14:12:08.277Z,27.63
2023-05-20T14:14:35.419Z,27.59
2023-05-20T14:17:02.211Z,27.59
2023-05-20T14:19:30.164Z,27.66
2023-05-20T14:21:59.017Z,27.78
2023-05-20T14:24:25.850Z,27.82
2023-05-20T14:26:53.756Z,27.86
2023-05-20T14:29:21.052Z,27.77
2023-05-20T14:31:48.094Z,27.68
2023-05-20T14:34:14.981Z,27.71
2023-05-20T14:36:42.166Z,27.76
2023-05-20T14:39:09.792Z,27.87
2023-05-20T14:41:36.589Z,28.00
2023-05-20T14:44:03.564Z,28.22
2023-05-20T14:46:30.828Z,28.43
2023-05-20T14:48:57.809Z,28.67
2023-05-20T14:51:24.632Z,28.95
2023-05-20T14:53:51.462Z,29.31
2023-05-20T14:56:18.316Z,29.74
2023-05-20T14:58:45.112Z,30.29
2023-05-20T15:01:12.156Z,30.99
2023-05-20T15:03:39.268Z,31.83
2023-05-20T15:06:06.327Z,32.65
2023-05-20T15:08:33.190Z,33.26
2023-05-20T15:11:00.025Z,33.81
2023-05-20T15:13:26.978Z,34.28
2023-05-20T15:15:54.083Z,34.71
2023-05-20T15:18:20.925Z,34.99
2023-05-20T15:20:47.728Z,35.35
2023-05-20T15:23:14.584Z,35.55
2023-05-20T15:25:41.307Z,35.41
2023-05-20T15:28:08.760Z,34.97
2023-05-20T15:30:35.974Z,34.94
2023-05-20T15:33:03.267Z,35.25
2023-05-20T15:35:30.235Z,35.61
2023-05-20T15:37:57.386Z,36.13
2023-05-20T15:40:24.375Z,36.73
2023-05-20T15:42:51.647Z,37.20
2023-05-20T15:45:18.637Z,37.57
2023-05-20T15:47:45.550Z,38.02
2023-05-20T15:50:12.630Z,38.52
2023-05-20T15:52:40.049Z,39.01
2023-05-20T15:55:07.978Z,39.33
2023-05-20T15:57:34.779Z,39.53
2023-05-20T16:00:01.690Z,39.58
2023-05-20T16:02:28.787Z,39.48
2023-05-20T16:04:55.947Z,39.35
2023-05-20T16:07:22.732Z,39.41
2023-05-20T16:09:49.557Z,39.57
2023-05-20T16:12:17.121Z,39.54
2023-05-20T16:14:44.891Z,39.38
2023-05-20T16:17:12.274Z,39.20
2023-05-20T16:19:39.314Z,39.04
2023-05-20T16:22:06.196Z,38.87
2023-05-20T16:24:32.952Z,38.52
2023-05-20T16:26:59.728Z,38.19
2023-05-20T16:29:26.493Z,37.86
2023-05-20T16:31:53.439Z,37.48
2023-05-20T16:34:20.461Z,36.97
2023-05-20T16:36:47.303Z,36.69
2023-05-20T16:39:14.795Z,36.45
2023-05-20T16:41:42.055Z,36.30
2023-05-20T16:44:08.996Z,36.11
2023-05-20T16:46:36.060Z,35.85
2023-05-20T16:49:02.873Z,35.65
2023-05-20T16:51:29.734Z,35.20
2023-05-20T16:53:56.608Z,34.76
2023-05-20T16:56:23.420Z,34.45
2023-05-20T16:58:52.783Z,34.10
2023-05-20T17:01:20.376Z,33.70
2023-05-20T17:03:47.392Z,33.18
2023-05-20T17:06:14.224Z,32.61
2023-05-20T17:08:41.308Z,32.03
2023-05-20T17:11:08.460Z,31.42
2023-05-20T17:13:35.824Z,30.83
2023-05-20T17:16:02.753Z,30.26
2023-05-20T17:18:29.623Z,29.74
2023-05-20T17:20:56.396Z,29.19
2023-05-20T17:23:23.227Z,28.69
2023-05-20T17:25:50.197Z,28.23
2023-05-20T17:28:17.925Z,27.80
2023-05-20T17:30:45.086Z,27.32
2023-05-20T17:33:12.060Z,26.89
2023-05-20T17:35:39.470Z,26.52
2023-05-20T17:38:06.375Z,26.13
2023-05-20T17:40:33.479Z,25.76
2023-05-20T17:43:01.358Z,25.40
2023-05-20T17:45:28.268Z,25.09
2023-05-20T17:47:55.165Z,24.73
2023-05-20T17:50:22.006Z,24.44
2023-05-20T17:52:48.872Z,24.18
2023-05-20T17:55:18.371Z,23.94
2023-05-20T17:57:45.241Z,23.72
2023-05-20T18:00:13.201Z,23.49
2023-05-20T18:02:47.373Z,23.29
2023-05-20T18:05:16.963Z,23.04
2023-05-20T18:07:43.887Z,22.82
2023-05-20T18:10:10.877Z,22.62
2023-05-20T18:12:38.235Z,22.44
2023-05-20T18:15:06.399Z,22.27
2023-05-20T18:17:33.594Z,22.10
2023-05-20T18:20:00.488Z,21.95
2023-05-20T18:22:27.423Z,21.82
2023-05-20T18:24:54.183Z,21.68
2023-05-20T18:27:21.303Z,21.54
2023-05-20T18:29:49.593Z,21.42
2023-05-20T18:32:16.447Z,21.31
2023-05-20T18:34:43.480Z,21.22
2023-05-20T18:37:10.296Z,21.12
2023-05-20T18:39:37.274Z,21.02
2023-05-20T18:42:04.636Z,20.93
2023-05-20T18:44:31.436Z,20.85
2023-05-20T18:46:58.436Z,20.75
2023-05-20T18:49:25.233Z,20.64
2023-05-20T18:51:52.236Z,20.54
2023-05-20T18:54:19.033Z,20.46
2023-05-20T18:56:48.622Z,20.39
2023-05-20T18:59:15.685Z,20.33
2023-05-20T19:01:42.558Z,20.26
2023-05-20T19:04:09.444Z,20.19
2023-05-20T19:06:37.669Z,20.13
2023-05-20T19:09:04.800Z,20.08
2023-05-20T19:11:31.690Z,20.04
2023-05-20T19:13:58.772Z,19.99
2023-05-20T19:16:26.245Z,19.93
2023-05-20T19:18:53.203Z,19.87
2023-05-20T19:21:20.010Z,19.83
2023-05-20T19:23:47.136Z,19.79
2023-05-20T19:26:15.088Z,19.75
2023-05-20T19:28:42.297Z,19.72
2023-05-20T19:31:09.154Z,19.66
2023-05-20T19:33:36.141Z,19.57
2023-05-20T19:36:03.012Z,19.50
2023-05-20T19:38:29.834Z,19.46
2023-05-20T19:40:56.635Z,19.42
2023-05-20T19:43:24.297Z,19.38
2023-05-20T19:45:51.484Z,19.34
2023-05-20T19:48:20.025Z,19.29
2023-05-20T19:50:49.262Z,19.22
2023-05-20T19:53:16.075Z,19.17
2023-05-20T19:55:43.259Z,19.12
2023-05-20T19:58:10.275Z,19.07
2023-05-20T20:00:37.381Z,19.04
2023-05-20T20:03:06.519Z,18.99
2023-05-20T20:05:34.251Z,18.96
2023-05-20T20:08:01.486Z,18.93
2023-05-20T20:10:30.758Z,18.91
2023-05-20T20:12:57.548Z,18.86
2023-05-20T20:15:25.448Z,18.82
2023-05-20T20:17:52.575Z,18.78
2023-05-20T20:20:19.736Z,18.73
2023-05-20T20:22:46.541Z,18.69
2023-05-20T20:25:16.546Z,18.65
2023-05-20T20:27:44.185Z,18.58
2023-05-20T20:30:13.631Z,18.54
2023-05-20T20:32:41.178Z,18.49
2023-05-20T20:35:08.553Z,18.44
2023-05-20T20:37:36.254Z,18.41
2023-05-20T20:40:04.196Z,18.38
2023-05-20T20:42:31.508Z,18.33
2023-05-20T20:44:58.489Z,18.30
2023-05-20T20:47:29.334Z,18.28
2023-05-20T20:49:56.606Z,18.25
2023-05-20T20:52:23.521Z,18.21
2023-05-20T20:54:50.463Z,18.18
2023-05-20T20:57:17.591Z,18.16
2023-05-20T20:59:48.110Z,18.13
2023-05-20T21:02:15.107Z,18.08
2023-05-20T21:04:42.996Z,18.04
2023-05-20T21:07:09.999Z,18.00
2023-05-20T21:09:36.787Z,17.95
2023-05-20T21:12:06.963Z,17.91
2023-05-20T21:14:33.882Z,17.87
2023-05-20T21:17:00.864Z,17.83
2023-05-20T21:19:28.210Z,17.78
2023-05-20T21:21:55.485Z,17.75
2023-05-20T21:24:22.437Z,17.73
2023-05-20T21:26:49.207Z,17.70
2023-05-20T21:29:16.362Z,17.67
2023-05-20T21:31:43.277Z,17.62
2023-05-20T21:34:10.118Z,17.56
2023-05-20T21:36:37.103Z,17.52
2023-05-20T21:39:03.982Z,17.47
2023-05-20T21:41:30.862Z,17.46
2023-05-20T21:43:57.619Z,17.44
2023-05-20T21:46:24.436Z,17.42
2023-05-20T21:48:51.288Z,17.39
2023-05-20T21:51:18.107Z,17.37
2023-05-20T21:53:44.922Z,17.37
2023-05-20T21:56:11.831Z,17.37
2023-05-20T21:58:41.402Z,17.38
2023-05-20T22:01:10.057Z,17.37
2023-05-20T22:03:38.261Z,17.35
2023-05-20T22:06:05.864Z,17.33
2023-05-20T22:08:35.565Z,17.30
2023-05-20T22:11:05.455Z,17.29
2023-05-20T22:13:33.345Z,17.28
2023-05-20T22:16:05.166Z,17.27
2023-05-20T22:18:32.134Z,17.26
2023-05-20T22:21:01.771Z,17.25
2023-05-20T22:23:28.912Z,17.22
2023-05-20T22:25:56.260Z,17.20
2023-05-20T22:28:23.890Z,17.19
2023-05-20T22:30:51.659Z,17.18
2023-05-20T22:33:18.712Z,17.17
2023-05-20T22:35:45.660Z,17.15
2023-05-20T22:38:12.461Z,17.12
2023-05-20T22:40:39.468Z,17.09
2023-05-20T22:43:06.382Z,17.07
2023-05-20T22:45:33.340Z,17.03
2023-05-20T22:48:02.066Z,17.00
2023-05-20T22:50:29.169Z,16.98
2023-05-20T22:52:55.996Z,16.97
2023-05-20T22:55:24.046Z,16.97
2023-05-20T22:57:50.873Z,16.95
2023-05-20T23:00:18.188Z,16.93
2023-05-20T23:02:50.084Z,16.91
2023-05-20T23:05:17.462Z,16.87
2023-05-20T23:07:45.119Z,16.85
2023-05-20T23:10:11.985Z,16.82
2023-05-20T23:12:39.098Z,16.79
2023-05-20T23:15:06.850Z,16.75
2023-05-20T23:17:33.708Z,16.69
2023-05-20T23:22:34.875Z,16.63
2023-05-20T23:25:03.264Z,16.55
2023-05-20T23:27:30.520Z,16.51
2023-05-20T23:29:58.377Z,16.48
2023-05-20T23:32:25.882Z,16.46
2023-05-20T23:34:53.583Z,16.43
2023-05-20T23:37:20.529Z,16.42
2023-05-20T23:39:47.665Z,16.39
2023-05-20T23:42:14.462Z,16.36
2023-05-20T23:44:41.438Z,16.33
2023-05-20T23:47:08.211Z,16.30
2023-05-20T23:49:35.037Z,16.27
2023-05-20T23:52:01.805Z,16.25
2023-05-20T23:54:28.561Z,16.24
2023-05-20T23:56:55.693Z,16.23
2023-05-20T23:59:22.790Z,16.23
